createdAt,value
2022-09-23T00:01:36.065Z,9.24
2022-09-23T00:04:43.224Z,9.24
2022-09-23T00:08:01.944Z,9.19
2022-09-23T00:11:08.520Z,9.14
2022-09-23T00:14:15.090Z,9.16
2022-09-23T00:17:27.474Z,9.10
2022-09-23T00:20:36.656Z,9.03
2022-09-23T00:23:49.197Z,9.08
2022-09-23T00:27:00.027Z,9.06
2022-09-23T00:30:07.873Z,9.02
2022-09-23T00:33:12.878Z,8.97
2022-09-23T00:36:20.908Z,8.89
2022-09-23T00:39:40.482Z,8.88
2022-09-23T00:42:50.094Z,8.88
2022-09-23T00:45:57.810Z,8.89
2022-09-23T00:49:17.023Z,8.82
2022-09-23T00:52:29.801Z,8.76
2022-09-23T00:55:49.292Z,8.76
2022-09-23T01:12:39.037Z,8.70
2022-09-23T01:15:59.631Z,8.66
2022-09-23T01:19:29.910Z,8.68
2022-09-23T01:22:50.202Z,8.62
2022-09-23T01:26:14.629Z,8.65
2022-09-23T01:29:50.554Z,8.61
2022-09-23T01:33:05.587Z,8.61
2022-09-23T01:36:18.926Z,8.70
2022-09-23T01:39:29.642Z,8.64
2022-09-23T01:42:39.379Z,8.60
2022-09-23T01:45:46.837Z,8.56
2022-09-23T01:48:56.622Z,8.58
2022-09-23T01:52:05.769Z,8.49
2022-09-23T01:55:13.710Z,8.40
2022-09-23T01:58:22.626Z,8.45
2022-09-23T02:01:30.668Z,8.38
2022-09-23T02:04:41.186Z,8.29
2022-09-23T02:07:49.663Z,8.28
2022-09-23T02:10:56.473Z,8.27
2022-09-23T02:14:02.548Z,8.23
2022-09-23T02:17:10.835Z,8.24
2022-09-23T02:20:20.583Z,8.23
2022-09-23T02:23:28.527Z,8.19
2022-09-23T02:26:36.281Z,8.15
2022-09-23T02:29:49.478Z,8.08
2022-09-23T02:32:59.169Z,8.07
2022-09-23T02:36:09.942Z,8.04
2022-09-23T02:39:14.879Z,8.03
2022-09-23T02:42:22.642Z,7.99
2022-09-23T02:45:25.469Z,7.93
2022-09-23T02:48:33.576Z,7.90
2022-09-23T02:51:38.337Z,7.90
2022-09-23T02:54:42.071Z,7.88
2022-09-23T02:57:45.766Z,7.88
2022-09-23T03:00:59.433Z,7.88
2022-09-23T03:04:14.774Z,7.88
2022-09-23T03:07:23.133Z,7.89
2022-09-23T03:10:30.370Z,7.88
2022-09-23T03:13:43.755Z,7.86
2022-09-23T03:16:51.755Z,7.88
2022-09-23T03:19:59.375Z,7.91
2022-09-23T03:23:08.422Z,7.90
2022-09-23T03:26:14.896Z,7.85
2022-09-23T03:29:19.850Z,7.89
2022-09-23T03:32:26.722Z,7.89
2022-09-23T03:35:54.649Z,7.90
2022-09-23T03:39:03.793Z,7.88
2022-09-23T03:42:16.931Z,7.88
2022-09-23T03:45:26.063Z,7.90
2022-09-23T03:48:30.995Z,7.87
2022-09-23T03:51:33.615Z,7.87
2022-09-23T03:54:37.615Z,7.85
2022-09-23T03:57:40.503Z,7.84
2022-09-23T04:00:44.289Z,7.81
2022-09-23T04:03:46.930Z,7.80
2022-09-23T04:06:49.658Z,7.79
2022-09-23T04:09:54.288Z,7.85
2022-09-23T04:12:56.891Z,7.83
2022-09-23T04:15:59.708Z,7.81
2022-09-23T04:19:02.482Z,7.80
2022-09-23T04:22:05.733Z,7.78
2022-09-23T04:25:10.630Z,7.80
2022-09-23T04:28:13.390Z,7.81
2022-09-23T04:31:16.125Z,7.78
2022-09-23T04:34:19.337Z,7.78
2022-09-23T04:37:21.968Z,7.78
2022-09-23T04:40:26.448Z,7.80
2022-09-23T04:43:29.188Z,7.76
2022-09-23T04:46:32.088Z,7.76
2022-09-23T04:49:34.758Z,7.82
2022-09-23T04:52:37.486Z,7.85
2022-09-23T04:55:42.445Z,7.84
2022-09-23T04:58:45.993Z,7.81
2022-09-23T05:01:49.107Z,7.89
2022-09-23T05:04:52.145Z,7.87
2022-09-23T05:07:55.897Z,7.79
2022-09-23T05:11:00.850Z,7.78
2022-09-23T05:14:03.703Z,7.77
2022-09-23T05:17:06.384Z,7.72
2022-09-23T05:20:10.368Z,7.81
2022-09-23T05:23:12.970Z,7.83
2022-09-23T05:26:17.229Z,7.88
2022-09-23T05:29:19.857Z,7.93
2022-09-23T05:32:22.855Z,7.98
2022-09-23T05:35:25.570Z,8.01
2022-09-23T05:38:29.312Z,8.12
2022-09-23T05:41:33.829Z,8.19
2022-09-23T05:44:36.470Z,8.23
2022-09-23T05:47:39.267Z,8.32
2022-09-23T05:50:50.991Z,8.41
2022-09-23T05:53:54.975Z,8.50
2022-09-23T05:57:01.426Z,8.64
2022-09-23T06:00:08.304Z,8.74
2022-09-23T06:03:15.907Z,8.86
2022-09-23T06:06:21.607Z,9.08
2022-09-23T06:09:24.261Z,9.20
2022-09-23T06:12:28.285Z,9.36
2022-09-23T06:15:30.918Z,9.57
2022-09-23T06:18:33.627Z,9.79
2022-09-23T06:21:38.136Z,9.95
2022-09-23T06:24:40.743Z,10.07
2022-09-23T06:27:45.570Z,10.19
2022-09-23T06:31:12.893Z,10.32
2022-09-23T06:34:45.641Z,10.54
2022-09-23T06:37:51.924Z,10.68
2022-09-23T06:40:55.898Z,10.80
2022-09-23T06:43:59.853Z,11.07
2022-09-23T06:47:02.637Z,11.28
2022-09-23T06:50:05.774Z,11.77
2022-09-23T06:53:08.410Z,12.62
2022-09-23T06:56:12.146Z,13.46
2022-09-23T06:59:16.951Z,14.50
2022-09-23T07:02:19.701Z,15.62
2022-09-23T07:05:22.561Z,16.32
2022-09-23T07:08:27.041Z,16.78
2022-09-23T07:11:29.752Z,17.31
2022-09-23T07:14:33.682Z,17.13
2022-09-23T07:17:36.617Z,16.41
2022-09-23T07:20:39.346Z,15.55
2022-09-23T07:23:42.479Z,15.04
2022-09-23T07:26:45.842Z,14.58
2022-09-23T07:29:50.358Z,14.24
2022-09-23T07:32:53.152Z,13.92
2022-09-23T07:35:55.845Z,13.63
2022-09-23T07:39:02.810Z,13.48
2022-09-23T07:42:06.155Z,13.32
2022-09-23T07:45:10.684Z,13.27
2022-09-23T07:48:13.519Z,13.29
2022-09-23T07:51:20.096Z,13.25
2022-09-23T07:54:25.433Z,13.26
2022-09-23T07:57:28.049Z,13.31
2022-09-23T08:00:32.694Z,13.31
2022-09-23T08:03:36.433Z,13.31
2022-09-23T08:06:42.304Z,13.39
2022-09-23T08:09:48.439Z,13.45
2022-09-23T08:12:51.074Z,13.50
2022-09-23T08:15:55.732Z,13.55
2022-09-23T08:18:58.488Z,13.58
2022-09-23T08:22:01.823Z,13.58
2022-09-23T08:25:08.120Z,13.68
2022-09-23T08:28:16.051Z,13.74
2022-09-23T08:31:20.109Z,13.81
2022-09-23T08:34:24.525Z,13.87
2022-09-23T08:37:27.576Z,13.84
2022-09-23T08:40:30.712Z,13.92
2022-09-23T08:43:37.014Z,14.04
2022-09-23T08:46:46.557Z,14.19
2022-09-23T08:50:01.789Z,14.37
2022-09-23T08:53:09.457Z,14.52
2022-09-23T08:56:16.034Z,14.68
2022-09-23T08:59:22.201Z,14.82
2022-09-23T09:02:26.303Z,14.91
2022-09-23T09:05:30.285Z,15.01
2022-09-23T09:08:38.647Z,15.16
2022-09-23T09:11:48.683Z,15.33
2022-09-23T09:14:58.970Z,15.47
2022-09-23T09:18:07.554Z,15.59
2022-09-23T09:21:14.064Z,15.73
2022-09-23T09:24:25.698Z,15.91
2022-09-23T09:27:28.353Z,16.09
2022-09-23T09:30:32.381Z,16.32
2022-09-23T09:33:45.392Z,16.54
2022-09-23T09:36:55.370Z,16.76
2022-09-23T09:39:58.093Z,16.95
2022-09-23T09:43:01.905Z,17.12
2022-09-23T09:46:17.448Z,17.17
2022-09-23T09:49:30.633Z,17.37
2022-09-23T09:52:33.440Z,17.46
2022-09-23T09:55:37.309Z,17.69
2022-09-23T09:58:47.561Z,17.84
2022-09-23T10:01:50.941Z,17.98
2022-09-23T10:05:01.772Z,18.11
2022-09-23T10:08:24.584Z,18.13
2022-09-23T10:11:27.190Z,18.21
2022-09-23T10:14:30.147Z,18.40
2022-09-23T10:17:35.313Z,18.49
2022-09-23T10:20:39.422Z,18.67
2022-09-23T10:23:45.274Z,18.79
2022-09-23T10:26:55.697Z,18.94
2022-09-23T10:30:00.981Z,19.08
2022-09-23T10:33:03.677Z,19.29
2022-09-23T10:36:10.550Z,19.45
2022-09-23T10:39:30.662Z,19.44
2022-09-23T10:43:04.853Z,19.53
2022-09-23T10:46:27.320Z,19.68
2022-09-23T10:49:47.556Z,19.74
2022-09-23T10:53:03.423Z,19.67
2022-09-23T10:56:17.459Z,19.57
2022-09-23T10:59:40.253Z,19.53
2022-09-23T11:03:09.410Z,19.45
2022-09-23T11:06:21.325Z,19.45
2022-09-23T11:09:34.444Z,19.41
2022-09-23T11:12:50.468Z,19.48
2022-09-23T11:16:03.858Z,19.57
2022-09-23T11:19:23.161Z,19.53
2022-09-23T11:22:41.812Z,19.54
2022-09-23T11:25:51.706Z,19.60
2022-09-23T11:29:18.711Z,19.62
2022-09-23T11:32:39.579Z,19.65
2022-09-23T11:35:49.091Z,19.68
2022-09-23T11:38:55.873Z,19.71
2022-09-23T11:42:02.642Z,19.87
2022-09-23T11:45:14.019Z,19.91
2022-09-23T11:48:21.326Z,19.97
2022-09-23T11:51:29.781Z,19.99
2022-09-23T11:54:40.635Z,19.89
2022-09-23T11:57:49.702Z,20.04
2022-09-23T12:01:01.285Z,20.20
2022-09-23T12:04:19.330Z,20.40
2022-09-23T12:07:28.602Z,20.51
2022-09-23T12:10:42.126Z,20.69
2022-09-23T12:13:53.816Z,20.83
2022-09-23T12:17:14.831Z,20.96
2022-09-23T12:20:34.233Z,20.96
2022-09-23T12:23:55.612Z,21.04
2022-09-23T12:27:02.278Z,21.01
2022-09-23T12:30:15.093Z,21.02
2022-09-23T12:33:24.655Z,20.94
2022-09-23T12:36:30.470Z,20.92
2022-09-23T12:39:37.176Z,20.99
2022-09-23T12:42:45.991Z,20.86
2022-09-23T12:45:50.837Z,20.97
2022-09-23T12:49:01.947Z,21.04
2022-09-23T12:52:25.827Z,20.95
2022-09-23T12:55:51.499Z,20.95
2022-09-23T12:59:13.921Z,20.93
2022-09-23T13:02:27.960Z,20.88
2022-09-23T13:05:48.498Z,20.93
2022-09-23T13:08:51.246Z,20.94
2022-09-23T13:11:57.581Z,20.95
2022-09-23T13:15:05.715Z,20.70
2022-09-23T13:18:58.919Z,20.69
2022-09-23T13:22:13.335Z,20.78
2022-09-23T13:25:20.869Z,20.79
2022-09-23T13:28:32.245Z,20.66
2022-09-23T13:31:35.658Z,20.59
2022-09-23T13:34:41.440Z,20.39
2022-09-23T13:37:46.130Z,20.30
2022-09-23T13:40:49.288Z,20.14
2022-09-23T13:43:55.440Z,20.03
2022-09-23T13:47:00.439Z,19.98
2022-09-23T13:50:04.902Z,20.04
2022-09-23T13:53:10.661Z,20.53
2022-09-23T13:56:15.134Z,21.43
2022-09-23T13:59:26.536Z,22.39
2022-09-23T14:02:29.440Z,23.19
2022-09-23T14:05:36.272Z,23.85
2022-09-23T14:08:40.621Z,24.26
2022-09-23T14:11:44.694Z,24.71
2022-09-23T14:14:47.571Z,24.56
2022-09-23T14:17:54.637Z,24.45
2022-09-23T14:20:58.642Z,24.48
2022-09-23T14:24:14.261Z,24.36
2022-09-23T14:27:21.000Z,23.74
2022-09-23T14:30:23.737Z,23.44
2022-09-23T14:33:28.958Z,23.06
2022-09-23T14:36:54.251Z,22.53
2022-09-23T14:39:57.884Z,21.80
2022-09-23T14:43:05.536Z,21.30
2022-09-23T14:46:18.914Z,20.88
2022-09-23T14:49:21.710Z,20.55
2022-09-23T14:52:25.726Z,20.35
2022-09-23T14:55:29.974Z,20.21
2022-09-23T14:58:45.998Z,20.04
2022-09-23T15:01:50.842Z,19.89
2022-09-23T15:04:55.168Z,19.72
2022-09-23T15:08:03.809Z,19.61
2022-09-23T15:11:08.308Z,19.52
2022-09-23T15:14:33.510Z,19.49
2022-09-23T15:17:37.479Z,19.38
2022-09-23T15:20:40.556Z,19.23
2022-09-23T15:23:48.872Z,19.14
2022-09-23T15:26:52.831Z,19.08
2022-09-23T15:29:56.227Z,18.96
2022-09-23T15:32:59.769Z,18.88
2022-09-23T15:36:03.543Z,18.77
2022-09-23T15:39:32.027Z,18.68
2022-09-23T15:42:38.919Z,18.65
2022-09-23T15:45:46.211Z,18.57
2022-09-23T15:48:58.992Z,18.49
2022-09-23T15:52:03.571Z,18.38
2022-09-23T15:55:17.502Z,18.31
2022-09-23T15:58:20.341Z,18.26
2022-09-23T16:01:28.774Z,18.20
2022-09-23T16:04:31.672Z,18.13
2022-09-23T16:07:36.260Z,18.08
2022-09-23T16:10:40.495Z,18.01
2022-09-23T16:13:43.563Z,17.99
2022-09-23T16:16:47.874Z,17.94
2022-09-23T16:19:50.762Z,17.91
2022-09-23T16:22:57.114Z,17.80
2022-09-23T16:26:05.751Z,17.73
2022-09-23T16:29:10.513Z,17.68
2022-09-23T16:32:13.142Z,17.57
2022-09-23T16:35:16.087Z,17.48
2022-09-23T16:38:18.715Z,17.33
2022-09-23T16:41:23.289Z,17.24
2022-09-23T16:44:25.983Z,17.14
2022-09-23T16:47:28.809Z,17.01
2022-09-23T16:50:31.938Z,16.88
2022-09-23T16:53:36.247Z,16.78
2022-09-23T16:56:44.192Z,16.68
2022-09-23T17:00:04.169Z,16.61
2022-09-23T17:03:24.282Z,16.50
2022-09-23T17:06:28.948Z,16.37
2022-09-23T17:09:33.044Z,16.27
2022-09-23T17:12:37.382Z,16.19
2022-09-23T17:15:40.915Z,16.10
2022-09-23T17:18:43.836Z,16.01
2022-09-23T17:21:46.453Z,15.95
2022-09-23T17:24:49.103Z,15.86
2022-09-23T17:27:56.655Z,15.82
2022-09-23T17:31:00.735Z,15.74
2022-09-23T17:34:03.433Z,15.64
2022-09-23T17:37:06.258Z,15.52
2022-09-23T17:40:09.893Z,15.46
2022-09-23T17:43:25.679Z,15.35
2022-09-23T17:46:28.778Z,15.28
2022-09-23T17:49:35.399Z,15.21
2022-09-23T17:52:38.020Z,15.16
2022-09-23T17:55:40.954Z,15.10
2022-09-23T17:58:46.201Z,15.02
2022-09-23T18:01:48.898Z,14.97
2022-09-23T18:04:51.668Z,14.89
2022-09-23T18:07:54.371Z,14.78
2022-09-23T18:10:57.020Z,14.71
2022-09-23T18:14:03.399Z,14.67
2022-09-23T18:17:06.070Z,14.58
2022-09-23T18:20:10.013Z,14.54
2022-09-23T18:23:12.633Z,14.53
2022-09-23T18:26:15.961Z,14.55
2022-09-23T18:29:19.948Z,14.56
2022-09-23T18:32:22.582Z,14.54
2022-09-23T18:35:26.258Z,14.45
2022-09-23T18:38:31.306Z,14.41
2022-09-23T18:41:34.678Z,14.39
2022-09-23T18:44:38.664Z,14.37
2022-09-23T18:47:58.970Z,14.37
2022-09-23T18:51:01.662Z,14.33
2022-09-23T18:54:06.549Z,14.33
2022-09-23T18:57:09.239Z,14.32
2022-09-23T19:00:13.981Z,14.26
2022-09-23T19:03:17.653Z,14.26
2022-09-23T19:06:21.304Z,14.23
2022-09-23T19:09:24.457Z,14.23
2022-09-23T19:12:27.062Z,14.22
2022-09-23T19:15:31.279Z,14.22
2022-09-23T19:18:35.554Z,14.22
2022-09-23T19:21:38.230Z,14.18
2022-09-23T19:24:40.869Z,14.13
2022-09-23T19:27:43.551Z,14.11
2022-09-23T19:31:01.601Z,14.09
2022-09-23T19:34:10.228Z,14.06
2022-09-23T19:37:13.274Z,14.04
2022-09-23T19:40:16.224Z,14.00
2022-09-23T19:43:21.100Z,13.96
2022-09-23T19:46:25.049Z,13.94
2022-09-23T19:49:27.821Z,13.90
2022-09-23T19:52:30.465Z,13.81
2022-09-23T19:55:33.954Z,13.76
2022-09-23T19:58:37.613Z,13.74
2022-09-23T20:02:16.361Z,13.80
2022-09-23T20:05:20.541Z,13.76
2022-09-23T20:08:23.700Z,13.73
2022-09-23T20:11:28.669Z,13.69
2022-09-23T20:14:34.669Z,13.66
2022-09-23T20:17:39.994Z,13.65
2022-09-23T20:20:43.094Z,13.62
2022-09-23T20:23:48.762Z,13.66
2022-09-23T20:27:09.722Z,13.58
2022-09-23T20:30:12.726Z,13.54
2022-09-23T20:33:16.773Z,13.53
2022-09-23T20:36:19.414Z,13.53
2022-09-23T20:39:22.207Z,13.51
2022-09-23T20:42:24.805Z,13.50
2022-09-23T20:45:27.496Z,13.50
2022-09-23T20:48:32.018Z,13.49
2022-09-23T20:51:34.921Z,13.47
2022-09-23T20:54:38.866Z,13.45
2022-09-23T20:57:41.810Z,13.43
2022-09-23T21:00:45.408Z,13.38
2022-09-23T21:03:52.256Z,13.39
2022-09-23T21:06:55.898Z,13.46
2022-09-23T21:09:58.778Z,13.52
2022-09-23T21:13:02.081Z,13.45
2022-09-23T21:16:05.902Z,13.41
2022-09-23T21:19:09.913Z,13.40
2022-09-23T21:22:12.882Z,13.36
2022-09-23T21:25:27.468Z,13.33
2022-09-23T21:28:31.965Z,13.28
2022-09-23T21:31:36.815Z,13.26
2022-09-23T21:34:40.890Z,13.23
2022-09-23T21:37:43.516Z,13.22
2022-09-23T21:40:58.057Z,13.21
2022-09-23T21:44:04.518Z,13.18
2022-09-23T21:47:07.341Z,13.13
2022-09-23T21:50:11.922Z,13.09
2022-09-23T21:53:14.751Z,13.04
2022-09-23T21:56:21.813Z,13.02
2022-09-23T21:59:24.466Z,13.00
2022-09-23T22:02:27.459Z,13.01
2022-09-23T22:05:32.054Z,12.97
2022-09-23T22:08:37.037Z,12.94
2022-09-23T22:11:58.089Z,12.84
2022-09-23T22:15:00.740Z,12.81
2022-09-23T22:18:05.164Z,12.82
2022-09-23T22:21:09.984Z,12.82
2022-09-23T22:24:13.966Z,12.78
2022-09-23T22:27:19.522Z,12.78
2022-09-23T22:30:39.866Z,12.77
2022-09-23T22:33:42.483Z,12.76
2022-09-23T22:36:46.480Z,12.76
2022-09-23T22:39:49.130Z,12.72
2022-09-23T22:42:52.571Z,12.65
2022-09-23T22:45:55.204Z,12.67
2022-09-23T22:48:58.334Z,12.70
2022-09-23T22:52:07.725Z,12.65
2022-09-23T22:55:10.848Z,12.60
2022-09-23T22:58:31.317Z,12.60
2022-09-23T23:01:36.590Z,12.68
2022-09-23T23:04:39.284Z,12.70
2022-09-23T23:07:43.229Z,12.74
2022-09-23T23:10:45.954Z,12.75
2022-09-23T23:13:48.837Z,12.72
2022-09-23T23:16:51.625Z,12.67
2022-09-23T23:19:54.443Z,12.64
2022-09-23T23:23:00.894Z,12.59
2022-09-23T23:26:09.816Z,12.60
2022-09-23T23:29:14.122Z,12.57
2022-09-23T23:32:17.176Z,12.53
2022-09-23T23:35:19.764Z,12.50
2022-09-23T23:38:23.921Z,12.45
2022-09-23T23:41:26.747Z,12.45
2022-09-23T23:44:30.524Z,12.45
2022-09-23T23:47:33.182Z,12.43
2022-09-23T23:50:36.026Z,12.45
2022-09-23T23:53:41.171Z,12.49
2022-09-23T23:56:43.850Z,12.53
2022-09-23T23:59:47.108Z,12.56
